sensor_id;sensor_type;location;lat;lon;timestamp;P1;durP1;ratioP1;P2;durP2;ratioP2
71655;SDS011;59497;48.798;8.816;2022-09-13T00:00:15;2.22;;;1.88;;
71655;SDS011;59497;48.798;8.816;2022-09-13T00:02:40;2.63;;;1.80;;
71655;SDS011;59497;48.798;8.816;2022-09-13T00:05:06;2.33;;;2.10;;
71655;SDS011;59497;48.798;8.816;2022-09-13T00:07:31;3.37;;;1.90;;
71655;SDS011;59497;48.798;8.816;2022-09-13T00:09:56;2.60;;;2.08;;
71655;SDS011;59497;48.798;8.816;2022-09-13T00:12:22;7.35;;;3.13;;
71655;SDS011;59497;48.798;8.816;2022-09-13T00:14:47;4.07;;;2.23;;
71655;SDS011;59497;48.798;8.816;2022-09-13T00:17:12;3.20;;;2.30;;
71655;SDS011;59497;48.798;8.816;2022-09-13T00:19:37;3.60;;;2.40;;
71655;SDS011;59497;48.798;8.816;2022-09-13T00:22:02;3.50;;;2.00;;
71655;SDS011;59497;48.798;8.816;2022-09-13T00:24:30;3.13;;;2.10;;
71655;SDS011;59497;48.798;8.816;2022-09-13T00:26:55;3.53;;;2.50;;
71655;SDS011;59497;48.798;8.816;2022-09-13T00:29:20;3.95;;;2.75;;
71655;SDS011;59497;48.798;8.816;2022-09-13T00:31:45;4.10;;;2.63;;
71655;SDS011;59497;48.798;8.816;2022-09-13T00:34:10;5.03;;;2.47;;
71655;SDS011;59497;48.798;8.816;2022-09-13T00:36:36;2.57;;;2.27;;
71655;SDS011;59497;48.798;8.816;2022-09-13T00:39:01;3.37;;;2.17;;
71655;SDS011;59497;48.798;8.816;2022-09-13T00:41:26;3.60;;;2.30;;
71655;SDS011;59497;48.798;8.816;2022-09-13T00:43:52;2.45;;;2.25;;
71655;SDS011;59497;48.798;8.816;2022-09-13T00:48:46;2.85;;;2.33;;
71655;SDS011;59497;48.798;8.816;2022-09-13T00:51:13;2.60;;;2.35;;
71655;SDS011;59497;48.798;8.816;2022-09-13T00:53:39;5.30;;;2.43;;
71655;SDS011;59497;48.798;8.816;2022-09-13T00:56:07;2.67;;;2.13;;
71655;SDS011;59497;48.798;8.816;2022-09-13T01:00:59;3.83;;;2.40;;
71655;SDS011;59497;48.798;8.816;2022-09-13T01:03:27;3.22;;;2.30;;
71655;SDS011;59497;48.798;8.816;2022-09-13T01:05:56;4.30;;;2.00;;
71655;SDS011;59497;48.798;8.816;2022-09-13T01:08:23;3.65;;;2.80;;
71655;SDS011;59497;48.798;8.816;2022-09-13T01:10:51;3.40;;;2.23;;
71655;SDS011;59497;48.798;8.816;2022-09-13T01:13:21;2.85;;;2.00;;
71655;SDS011;59497;48.798;8.816;2022-09-13T01:15:47;3.85;;;2.28;;
71655;SDS011;59497;48.798;8.816;2022-09-13T01:18:12;3.60;;;2.17;;
71655;SDS011;59497;48.798;8.816;2022-09-13T01:20:42;5.20;;;2.50;;
71655;SDS011;59497;48.798;8.816;2022-09-13T01:23:14;5.57;;;2.67;;
71655;SDS011;59497;48.798;8.816;2022-09-13T01:46:18;2.70;;;2.10;;
71655;SDS011;59497;48.798;8.816;2022-09-13T01:51:15;5.20;;;2.30;;
71655;SDS011;59497;48.798;8.816;2022-09-13T01:53:51;3.25;;;2.00;;
71655;SDS011;59497;48.798;8.816;2022-09-13T01:56:26;4.28;;;2.40;;
71655;SDS011;59497;48.798;8.816;2022-09-13T01:59:04;4.40;;;2.33;;
71655;SDS011;59497;48.798;8.816;2022-09-13T02:01:34;3.13;;;2.20;;
71655;SDS011;59497;48.798;8.816;2022-09-13T02:04:10;2.67;;;2.33;;
71655;SDS011;59497;48.798;8.816;2022-09-13T02:06:42;2.60;;;2.40;;
71655;SDS011;59497;48.798;8.816;2022-09-13T02:09:11;2.85;;;2.17;;
71655;SDS011;59497;48.798;8.816;2022-09-13T02:11:38;3.40;;;2.60;;
71655;SDS011;59497;48.798;8.816;2022-09-13T02:14:11;2.42;;;2.00;;
71655;SDS011;59497;48.798;8.816;2022-09-13T02:16:48;3.85;;;2.47;;
71655;SDS011;59497;48.798;8.816;2022-09-13T02:19:21;4.35;;;2.50;;
71655;SDS011;59497;48.798;8.816;2022-09-13T02:21:51;3.83;;;2.13;;
71655;SDS011;59497;48.798;8.816;2022-09-13T02:24:27;2.70;;;2.30;;
71655;SDS011;59497;48.798;8.816;2022-09-13T02:26:53;3.45;;;2.42;;
71655;SDS011;59497;48.798;8.816;2022-09-13T02:29:19;2.65;;;2.20;;
71655;SDS011;59497;48.798;8.816;2022-09-13T02:31:55;3.83;;;2.28;;
71655;SDS011;59497;48.798;8.816;2022-09-13T02:34:23;2.80;;;2.50;;
71655;SDS011;59497;48.798;8.816;2022-09-13T02:36:49;3.83;;;2.42;;
71655;SDS011;59497;48.798;8.816;2022-09-13T02:39:17;2.95;;;2.25;;
71655;SDS011;59497;48.798;8.816;2022-09-13T02:41:52;3.53;;;1.98;;
71655;SDS011;59497;48.798;8.816;2022-09-13T02:49:47;3.05;;;2.40;;
71655;SDS011;59497;48.798;8.816;2022-09-13T02:52:25;3.90;;;2.28;;
71655;SDS011;59497;48.798;8.816;2022-09-13T02:55:10;2.95;;;2.20;;
71655;SDS011;59497;48.798;8.816;2022-09-13T02:57:41;2.75;;;1.88;;
71655;SDS011;59497;48.798;8.816;2022-09-13T03:00:09;3.57;;;2.27;;
71655;SDS011;59497;48.798;8.816;2022-09-13T03:02:35;4.28;;;2.53;;
71655;SDS011;59497;48.798;8.816;2022-09-13T03:05:02;2.37;;;2.00;;
71655;SDS011;59497;48.798;8.816;2022-09-13T03:07:27;2.80;;;2.27;;
71655;SDS011;59497;48.798;8.816;2022-09-13T03:09:53;2.83;;;2.43;;
71655;SDS011;59497;48.798;8.816;2022-09-13T03:12:23;2.95;;;2.20;;
71655;SDS011;59497;48.798;8.816;2022-09-13T03:14:55;3.20;;;2.35;;
71655;SDS011;59497;48.798;8.816;2022-09-13T03:20:09;6.70;;;2.50;;
71655;SDS011;59497;48.798;8.816;2022-09-13T03:22:52;3.20;;;2.10;;
71655;SDS011;59497;48.798;8.816;2022-09-13T03:28:10;3.95;;;2.13;;
71655;SDS011;59497;48.798;8.816;2022-09-13T03:30:39;5.68;;;2.53;;
71655;SDS011;59497;48.798;8.816;2022-09-13T03:33:22;3.28;;;1.90;;
71655;SDS011;59497;48.798;8.816;2022-09-13T03:38:15;6.67;;;2.30;;
71655;SDS011;59497;48.798;8.816;2022-09-13T03:40:46;2.53;;;1.73;;
71655;SDS011;59497;48.798;8.816;2022-09-13T03:43:30;4.40;;;2.30;;
71655;SDS011;59497;48.798;8.816;2022-09-13T03:46:01;3.25;;;2.10;;
71655;SDS011;59497;48.798;8.816;2022-09-13T03:48:29;3.40;;;2.28;;
71655;SDS011;59497;48.798;8.816;2022-09-13T03:50:54;2.60;;;2.03;;
71655;SDS011;59497;48.798;8.816;2022-09-13T03:53:21;2.65;;;2.33;;
71655;SDS011;59497;48.798;8.816;2022-09-13T03:55:47;3.67;;;2.53;;
71655;SDS011;59497;48.798;8.816;2022-09-13T03:58:13;6.43;;;2.60;;
71655;SDS011;59497;48.798;8.816;2022-09-13T04:00:39;2.80;;;2.42;;
71655;SDS011;59497;48.798;8.816;2022-09-13T04:03:05;3.28;;;2.15;;
71655;SDS011;59497;48.798;8.816;2022-09-13T04:05:30;3.63;;;2.30;;
71655;SDS011;59497;48.798;8.816;2022-09-13T04:07:55;2.97;;;2.13;;
71655;SDS011;59497;48.798;8.816;2022-09-13T04:10:20;4.00;;;2.47;;
71655;SDS011;59497;48.798;8.816;2022-09-13T04:12:48;2.90;;;2.53;;
71655;SDS011;59497;48.798;8.816;2022-09-13T04:15:13;3.67;;;2.67;;
71655;SDS011;59497;48.798;8.816;2022-09-13T04:17:38;2.73;;;2.43;;
71655;SDS011;59497;48.798;8.816;2022-09-13T04:20:03;2.65;;;2.22;;
71655;SDS011;59497;48.798;8.816;2022-09-13T04:22:29;3.20;;;2.30;;
71655;SDS011;59497;48.798;8.816;2022-09-13T04:24:55;2.60;;;2.25;;
71655;SDS011;59497;48.798;8.816;2022-09-13T04:27:20;3.17;;;2.50;;
71655;SDS011;59497;48.798;8.816;2022-09-13T04:29:45;3.27;;;2.13;;
71655;SDS011;59497;48.798;8.816;2022-09-13T04:32:11;2.60;;;2.25;;
71655;SDS011;59497;48.798;8.816;2022-09-13T04:34:36;4.37;;;2.70;;
71655;SDS011;59497;48.798;8.816;2022-09-13T04:37:01;3.97;;;2.17;;
71655;SDS011;59497;48.798;8.816;2022-09-13T04:39:26;3.70;;;2.67;;
71655;SDS011;59497;48.798;8.816;2022-09-13T04:41:52;4.20;;;2.57;;
71655;SDS011;59497;48.798;8.816;2022-09-13T04:44:18;4.63;;;2.92;;
71655;SDS011;59497;48.798;8.816;2022-09-13T04:46:47;3.47;;;2.63;;
71655;SDS011;59497;48.798;8.816;2022-09-13T04:49:13;3.25;;;2.72;;
71655;SDS011;59497;48.798;8.816;2022-09-13T04:51:38;6.03;;;2.23;;
71655;SDS011;59497;48.798;8.816;2022-09-13T04:54:04;4.23;;;2.30;;
71655;SDS011;59497;48.798;8.816;2022-09-13T04:56:29;2.70;;;1.97;;
71655;SDS011;59497;48.798;8.816;2022-09-13T04:58:54;2.93;;;2.37;;
71655;SDS011;59497;48.798;8.816;2022-09-13T05:01:20;2.60;;;2.08;;
71655;SDS011;59497;48.798;8.816;2022-09-13T05:03:45;4.40;;;2.20;;
71655;SDS011;59497;48.798;8.816;2022-09-13T05:06:12;3.40;;;2.40;;
71655;SDS011;59497;48.798;8.816;2022-09-13T05:08:37;3.22;;;2.33;;
71655;SDS011;59497;48.798;8.816;2022-09-13T05:11:02;3.40;;;2.20;;
71655;SDS011;59497;48.798;8.816;2022-09-13T05:13:28;2.83;;;2.30;;
71655;SDS011;59497;48.798;8.816;2022-09-13T05:15:54;3.47;;;2.50;;
71655;SDS011;59497;48.798;8.816;2022-09-13T05:18:20;3.55;;;2.75;;
71655;SDS011;59497;48.798;8.816;2022-09-13T05:20:45;3.90;;;2.87;;
71655;SDS011;59497;48.798;8.816;2022-09-13T05:23:10;3.60;;;2.75;;
71655;SDS011;59497;48.798;8.816;2022-09-13T05:25:35;4.63;;;2.10;;
71655;SDS011;59497;48.798;8.816;2022-09-13T05:28:00;5.07;;;3.03;;
71655;SDS011;59497;48.798;8.816;2022-09-13T05:30:25;3.07;;;2.60;;
71655;SDS011;59497;48.798;8.816;2022-09-13T05:32:51;3.17;;;2.45;;
71655;SDS011;59497;48.798;8.816;2022-09-13T05:35:16;2.70;;;2.50;;
71655;SDS011;59497;48.798;8.816;2022-09-13T05:37:41;4.65;;;2.53;;
71655;SDS011;59497;48.798;8.816;2022-09-13T05:40:06;5.20;;;2.50;;
71655;SDS011;59497;48.798;8.816;2022-09-13T05:42:31;4.07;;;2.40;;
71655;SDS011;59497;48.798;8.816;2022-09-13T05:44:56;3.23;;;2.57;;
71655;SDS011;59497;48.798;8.816;2022-09-13T05:47:22;3.35;;;2.65;;
71655;SDS011;59497;48.798;8.816;2022-09-13T05:49:47;3.27;;;2.57;;
71655;SDS011;59497;48.798;8.816;2022-09-13T05:52:12;5.00;;;2.60;;
71655;SDS011;59497;48.798;8.816;2022-09-13T05:54:37;3.97;;;2.87;;
71655;SDS011;59497;48.798;8.816;2022-09-13T05:57:02;3.40;;;2.67;;
71655;SDS011;59497;48.798;8.816;2022-09-13T05:59:28;4.27;;;2.40;;
71655;SDS011;59497;48.798;8.816;2022-09-13T06:01:53;4.90;;;3.10;;
71655;SDS011;59497;48.798;8.816;2022-09-13T06:04:18;2.77;;;2.17;;
71655;SDS011;59497;48.798;8.816;2022-09-13T06:06:43;3.93;;;2.33;;
71655;SDS011;59497;48.798;8.816;2022-09-13T06:09:09;3.50;;;2.43;;
71655;SDS011;59497;48.798;8.816;2022-09-13T06:11:35;4.55;;;2.80;;
71655;SDS011;59497;48.798;8.816;2022-09-13T06:14:00;3.47;;;2.40;;
71655;SDS011;59497;48.798;8.816;2022-09-13T06:16:25;2.80;;;2.50;;
71655;SDS011;59497;48.798;8.816;2022-09-13T06:18:50;3.83;;;2.27;;
71655;SDS011;59497;48.798;8.816;2022-09-13T06:21:16;3.30;;;2.47;;
71655;SDS011;59497;48.798;8.816;2022-09-13T11:50:54;2.03;;;1.92;;
71655;SDS011;59497;48.798;8.816;2022-09-13T11:55:53;1.67;;;1.37;;
71655;SDS011;59497;48.798;8.816;2022-09-13T11:59:07;1.67;;;1.58;;
71655;SDS011;59497;48.798;8.816;2022-09-13T12:01:09;2.13;;;2.03;;
71655;SDS011;59497;48.798;8.816;2022-09-13T12:06:10;1.48;;;1.38;;
71655;SDS011;59497;48.798;8.816;2022-09-13T12:08:40;2.13;;;1.97;;
71655;SDS011;59497;48.798;8.816;2022-09-13T12:11:14;2.05;;;1.85;;
71655;SDS011;59497;48.798;8.816;2022-09-13T12:13:44;2.08;;;1.98;;
71655;SDS011;59497;48.798;8.816;2022-09-13T12:16:12;1.40;;;1.30;;
71655;SDS011;59497;48.798;8.816;2022-09-13T12:18:43;1.63;;;1.52;;
71655;SDS011;59497;48.798;8.816;2022-09-13T12:21:09;1.83;;;1.73;;
71655;SDS011;59497;48.798;8.816;2022-09-13T12:23:46;2.53;;;2.33;;
71655;SDS011;59497;48.798;8.816;2022-09-13T12:26:16;1.80;;;1.70;;
71655;SDS011;59497;48.798;8.816;2022-09-13T12:28:53;1.92;;;1.83;;
71655;SDS011;59497;48.798;8.816;2022-09-13T12:31:19;1.80;;;1.70;;
71655;SDS011;59497;48.798;8.816;2022-09-13T12:33:45;2.10;;;2.00;;
71655;SDS011;59497;48.798;8.816;2022-09-13T12:46:29;1.65;;;1.58;;
71655;SDS011;59497;48.798;8.816;2022-09-13T12:51:43;4.07;;;1.95;;
71655;SDS011;59497;48.798;8.816;2022-09-13T12:59:16;1.65;;;1.55;;
71655;SDS011;59497;48.798;8.816;2022-09-13T13:01:45;2.40;;;1.70;;
71655;SDS011;59497;48.798;8.816;2022-09-13T13:04:16;2.03;;;1.88;;
71655;SDS011;59497;48.798;8.816;2022-09-13T13:06:56;2.10;;;1.92;;
71655;SDS011;59497;48.798;8.816;2022-09-13T13:11:59;1.83;;;1.67;;
71655;SDS011;59497;48.798;8.816;2022-09-13T13:19:45;2.47;;;1.58;;
71655;SDS011;59497;48.798;8.816;2022-09-13T13:23:01;3.27;;;2.10;;
71655;SDS011;59497;48.798;8.816;2022-09-13T13:25:22;3.35;;;1.63;;
71655;SDS011;59497;48.798;8.816;2022-09-13T13:27:45;1.55;;;1.45;;
71655;SDS011;59497;48.798;8.816;2022-09-13T13:33:03;2.03;;;1.92;;
71655;SDS011;59497;48.798;8.816;2022-09-13T13:35:29;2.13;;;1.90;;
71655;SDS011;59497;48.798;8.816;2022-09-13T13:38:04;1.83;;;1.73;;
71655;SDS011;59497;48.798;8.816;2022-09-13T13:40:37;2.17;;;1.83;;
71655;SDS011;59497;48.798;8.816;2022-09-13T13:48:35;3.75;;;1.98;;
71655;SDS011;59497;48.798;8.816;2022-09-13T13:53:35;1.85;;;1.67;;
71655;SDS011;59497;48.798;8.816;2022-09-13T13:56:14;2.40;;;2.20;;
71655;SDS011;59497;48.798;8.816;2022-09-13T14:01:10;2.20;;;1.92;;
71655;SDS011;59497;48.798;8.816;2022-09-13T14:03:48;1.92;;;1.83;;
71655;SDS011;59497;48.798;8.816;2022-09-13T14:06:15;2.03;;;1.92;;
71655;SDS011;59497;48.798;8.816;2022-09-13T14:11:26;2.33;;;1.73;;
71655;SDS011;59497;48.798;8.816;2022-09-13T14:16:53;2.22;;;2.13;;
71655;SDS011;59497;48.798;8.816;2022-09-13T14:19:26;2.88;;;1.65;;
71655;SDS011;59497;48.798;8.816;2022-09-13T14:24:38;3.13;;;1.63;;
71655;SDS011;59497;48.798;8.816;2022-09-13T14:27:09;1.42;;;1.33;;
71655;SDS011;59497;48.798;8.816;2022-09-13T14:29:37;2.05;;;1.95;;
71655;SDS011;59497;48.798;8.816;2022-09-13T14:32:04;1.90;;;1.80;;
71655;SDS011;59497;48.798;8.816;2022-09-13T14:34:30;1.67;;;1.55;;
71655;SDS011;59497;48.798;8.816;2022-09-13T14:36:58;2.47;;;1.73;;
71655;SDS011;59497;48.798;8.816;2022-09-13T14:39:23;1.90;;;1.70;;
71655;SDS011;59497;48.798;8.816;2022-09-13T14:41:56;2.40;;;1.52;;
71655;SDS011;59497;48.798;8.816;2022-09-13T14:44:23;2.30;;;1.92;;
71655;SDS011;59497;48.798;8.816;2022-09-13T14:46:51;1.87;;;1.50;;
71655;SDS011;59497;48.798;8.816;2022-09-13T14:49:24;1.63;;;1.52;;
71655;SDS011;59497;48.798;8.816;2022-09-13T14:51:51;1.85;;;1.75;;
71655;SDS011;59497;48.798;8.816;2022-09-13T14:54:25;2.40;;;1.35;;
71655;SDS011;59497;48.798;8.816;2022-09-13T14:56:53;2.55;;;1.85;;
71655;SDS011;59497;48.798;8.816;2022-09-13T14:59:28;1.57;;;1.07;;
71655;SDS011;59497;48.798;8.816;2022-09-13T15:01:54;3.15;;;1.90;;
71655;SDS011;59497;48.798;8.816;2022-09-13T15:04:22;2.83;;;1.75;;
71655;SDS011;59497;48.798;8.816;2022-09-13T15:06:48;1.83;;;1.20;;
71655;SDS011;59497;48.798;8.816;2022-09-13T15:09:29;1.75;;;1.40;;
71655;SDS011;59497;48.798;8.816;2022-09-13T15:11:56;2.23;;;1.90;;
71655;SDS011;59497;48.798;8.816;2022-09-13T15:14:31;1.63;;;1.52;;
71655;SDS011;59497;48.798;8.816;2022-09-13T15:19:30;2.60;;;2.40;;
71655;SDS011;59497;48.798;8.816;2022-09-13T15:22:10;3.10;;;2.90;;
71655;SDS011;59497;48.798;8.816;2022-09-13T15:24:36;3.53;;;2.33;;
71655;SDS011;59497;48.798;8.816;2022-09-13T15:27:04;2.53;;;2.33;;
71655;SDS011;59497;48.798;8.816;2022-09-13T15:29:30;4.95;;;2.80;;
71655;SDS011;59497;48.798;8.816;2022-09-13T15:31:59;3.08;;;1.92;;
71655;SDS011;59497;48.798;8.816;2022-09-13T15:34:24;4.23;;;2.03;;
71655;SDS011;59497;48.798;8.816;2022-09-13T15:39:25;2.63;;;1.90;;
71655;SDS011;59497;48.798;8.816;2022-09-13T15:41:52;3.93;;;2.17;;
71655;SDS011;59497;48.798;8.816;2022-09-13T15:44:17;2.78;;;1.77;;
71655;SDS011;59497;48.798;8.816;2022-09-13T15:46:51;1.37;;;1.27;;
71655;SDS011;59497;48.798;8.816;2022-09-13T15:49:17;2.50;;;1.40;;
71655;SDS011;59497;48.798;8.816;2022-09-13T15:51:43;2.53;;;1.67;;
71655;SDS011;59497;48.798;8.816;2022-09-13T15:54:15;2.27;;;1.80;;
71655;SDS011;59497;48.798;8.816;2022-09-13T15:56:42;2.30;;;1.45;;
71655;SDS011;59497;48.798;8.816;2022-09-13T15:59:14;2.05;;;1.70;;
71655;SDS011;59497;48.798;8.816;2022-09-13T16:01:40;1.98;;;1.80;;
71655;SDS011;59497;48.798;8.816;2022-09-13T16:04:05;4.27;;;2.00;;
71655;SDS011;59497;48.798;8.816;2022-09-13T16:06:31;1.90;;;1.80;;
71655;SDS011;59497;48.798;8.816;2022-09-13T16:08:57;3.63;;;2.10;;
71655;SDS011;59497;48.798;8.816;2022-09-13T16:11:24;2.40;;;2.00;;
71655;SDS011;59497;48.798;8.816;2022-09-13T16:13:49;2.80;;;1.63;;
71655;SDS011;59497;48.798;8.816;2022-09-13T16:16:14;1.77;;;1.67;;
71655;SDS011;59497;48.798;8.816;2022-09-13T16:18:39;2.67;;;2.23;;
71655;SDS011;59497;48.798;8.816;2022-09-13T16:21:04;3.00;;;1.73;;
71655;SDS011;59497;48.798;8.816;2022-09-13T16:23:29;3.17;;;1.83;;
71655;SDS011;59497;48.798;8.816;2022-09-13T16:25:55;3.17;;;2.13;;
71655;SDS011;59497;48.798;8.816;2022-09-13T16:28:21;6.72;;;1.95;;
71655;SDS011;59497;48.798;8.816;2022-09-13T16:30:46;2.30;;;2.00;;
71655;SDS011;59497;48.798;8.816;2022-09-13T16:33:12;1.67;;;1.57;;
71655;SDS011;59497;48.798;8.816;2022-09-13T16:35:37;1.83;;;1.52;;
71655;SDS011;59497;48.798;8.816;2022-09-13T16:38:02;2.37;;;1.60;;
71655;SDS011;59497;48.798;8.816;2022-09-13T16:40:27;1.87;;;1.40;;
71655;SDS011;59497;48.798;8.816;2022-09-13T16:42:52;2.03;;;1.00;;
71655;SDS011;59497;48.798;8.816;2022-09-13T16:45:18;2.07;;;1.43;;
71655;SDS011;59497;48.798;8.816;2022-09-13T16:47:43;2.53;;;1.53;;
71655;SDS011;59497;48.798;8.816;2022-09-13T16:50:08;1.57;;;1.43;;
71655;SDS011;59497;48.798;8.816;2022-09-13T16:52:33;2.10;;;1.17;;
71655;SDS011;59497;48.798;8.816;2022-09-13T16:54:59;2.37;;;1.57;;
71655;SDS011;59497;48.798;8.816;2022-09-13T16:57:24;3.37;;;2.10;;
71655;SDS011;59497;48.798;8.816;2022-09-13T16:59:50;3.83;;;2.00;;
71655;SDS011;59497;48.798;8.816;2022-09-13T17:02:17;2.05;;;1.77;;
71655;SDS011;59497;48.798;8.816;2022-09-13T17:04:42;1.87;;;1.77;;
71655;SDS011;59497;48.798;8.816;2022-09-13T17:07:07;1.67;;;1.53;;
71655;SDS011;59497;48.798;8.816;2022-09-13T17:09:33;2.33;;;1.60;;
71655;SDS011;59497;48.798;8.816;2022-09-13T17:11:58;1.23;;;1.13;;
71655;SDS011;59497;48.798;8.816;2022-09-13T17:14:24;1.20;;;1.10;;
71655;SDS011;59497;48.798;8.816;2022-09-13T17:16:50;3.50;;;1.30;;
71655;SDS011;59497;48.798;8.816;2022-09-13T17:19:17;2.20;;;1.52;;
71655;SDS011;59497;48.798;8.816;2022-09-13T17:21:43;1.65;;;1.30;;
71655;SDS011;59497;48.798;8.816;2022-09-13T17:24:09;2.67;;;1.20;;
71655;SDS011;59497;48.798;8.816;2022-09-13T17:26:34;1.70;;;1.60;;
71655;SDS011;59497;48.798;8.816;2022-09-13T17:29:00;3.27;;;1.50;;
71655;SDS011;59497;48.798;8.816;2022-09-13T17:31:25;1.80;;;1.50;;
71655;SDS011;59497;48.798;8.816;2022-09-13T17:33:50;3.30;;;2.20;;
71655;SDS011;59497;48.798;8.816;2022-09-13T17:36:17;1.98;;;1.70;;
71655;SDS011;59497;48.798;8.816;2022-09-13T17:38:42;2.70;;;1.67;;
71655;SDS011;59497;48.798;8.816;2022-09-13T17:41:14;2.60;;;1.60;;
71655;SDS011;59497;48.798;8.816;2022-09-13T17:43:40;2.75;;;1.90;;
71655;SDS011;59497;48.798;8.816;2022-09-13T17:46:07;1.90;;;1.80;;
71655;SDS011;59497;48.798;8.816;2022-09-13T17:48:33;1.90;;;1.33;;
71655;SDS011;59497;48.798;8.816;2022-09-13T17:51:00;1.80;;;1.70;;
71655;SDS011;59497;48.798;8.816;2022-09-13T17:53:25;1.33;;;1.23;;
71655;SDS011;59497;48.798;8.816;2022-09-13T17:55:50;3.28;;;2.15;;
71655;SDS011;59497;48.798;8.816;2022-09-13T17:58:16;2.63;;;1.47;;
71655;SDS011;59497;48.798;8.816;2022-09-13T18:00:41;1.77;;;1.67;;
71655;SDS011;59497;48.798;8.816;2022-09-13T18:03:06;1.93;;;1.30;;
71655;SDS011;59497;48.798;8.816;2022-09-13T18:05:32;2.37;;;1.60;;
71655;SDS011;59497;48.798;8.816;2022-09-13T18:07:57;1.80;;;1.50;;
71655;SDS011;59497;48.798;8.816;2022-09-13T18:10:22;1.85;;;1.40;;
71655;SDS011;59497;48.798;8.816;2022-09-13T18:12:47;2.45;;;1.40;;
71655;SDS011;59497;48.798;8.816;2022-09-13T18:15:12;4.35;;;1.60;;
71655;SDS011;59497;48.798;8.816;2022-09-13T18:17:37;3.53;;;1.20;;
71655;SDS011;59497;48.798;8.816;2022-09-13T18:20:03;2.10;;;1.60;;
71655;SDS011;59497;48.798;8.816;2022-09-13T18:22:28;1.27;;;1.17;;
71655;SDS011;59497;48.798;8.816;2022-09-13T18:24:53;2.15;;;1.70;;
71655;SDS011;59497;48.798;8.816;2022-09-13T18:27:18;1.80;;;0.93;;
71655;SDS011;59497;48.798;8.816;2022-09-13T18:29:43;2.63;;;0.90;;
71655;SDS011;59497;48.798;8.816;2022-09-13T18:32:08;1.27;;;1.00;;
71655;SDS011;59497;48.798;8.816;2022-09-13T18:34:34;0.88;;;0.80;;
71655;SDS011;59497;48.798;8.816;2022-09-13T18:36:59;1.65;;;1.15;;
71655;SDS011;59497;48.798;8.816;2022-09-13T18:39:26;2.70;;;1.55;;
71655;SDS011;59497;48.798;8.816;2022-09-13T18:41:53;2.37;;;1.37;;
71655;SDS011;59497;48.798;8.816;2022-09-13T18:44:18;1.98;;;1.20;;
71655;SDS011;59497;48.798;8.816;2022-09-13T18:46:43;1.30;;;1.20;;
71655;SDS011;59497;48.798;8.816;2022-09-13T18:49:11;1.65;;;1.08;;
71655;SDS011;59497;48.798;8.816;2022-09-13T18:51:40;1.73;;;1.40;;
71655;SDS011;59497;48.798;8.816;2022-09-13T18:54:06;2.35;;;1.40;;
71655;SDS011;59497;48.798;8.816;2022-09-13T18:56:32;2.97;;;1.20;;
71655;SDS011;59497;48.798;8.816;2022-09-13T18:58:59;2.58;;;1.20;;
71655;SDS011;59497;48.798;8.816;2022-09-13T19:01:25;3.80;;;1.40;;
71655;SDS011;59497;48.798;8.816;2022-09-13T19:04:10;1.35;;;1.20;;
71655;SDS011;59497;48.798;8.816;2022-09-13T19:06:46;2.00;;;1.60;;
71655;SDS011;59497;48.798;8.816;2022-09-13T19:09:15;1.77;;;1.37;;
71655;SDS011;59497;48.798;8.816;2022-09-13T19:11:41;2.33;;;1.33;;
71655;SDS011;59497;48.798;8.816;2022-09-13T19:14:07;6.22;;;2.08;;
71655;SDS011;59497;48.798;8.816;2022-09-13T19:16:34;3.72;;;1.90;;
71655;SDS011;59497;48.798;8.816;2022-09-13T19:18:59;4.57;;;1.90;;
71655;SDS011;59497;48.798;8.816;2022-09-13T19:21:26;4.53;;;2.87;;
71655;SDS011;59497;48.798;8.816;2022-09-13T19:23:53;4.07;;;2.08;;
71655;SDS011;59497;48.798;8.816;2022-09-13T19:26:22;4.50;;;2.42;;
71655;SDS011;59497;48.798;8.816;2022-09-13T19:28:51;2.67;;;1.67;;
71655;SDS011;59497;48.798;8.816;2022-09-13T19:31:17;2.73;;;1.40;;
71655;SDS011;59497;48.798;8.816;2022-09-13T19:33:43;1.75;;;1.33;;
71655;SDS011;59497;48.798;8.816;2022-09-13T19:36:11;3.78;;;1.58;;
71655;SDS011;59497;48.798;8.816;2022-09-13T19:38:41;2.10;;;1.50;;
71655;SDS011;59497;48.798;8.816;2022-09-13T19:41:07;3.03;;;1.40;;
71655;SDS011;59497;48.798;8.816;2022-09-13T19:43:37;3.38;;;1.40;;
71655;SDS011;59497;48.798;8.816;2022-09-13T19:46:06;1.73;;;1.45;;
71655;SDS011;59497;48.798;8.816;2022-09-13T19:48:35;3.03;;;1.70;;
71655;SDS011;59497;48.798;8.816;2022-09-13T19:51:02;3.53;;;1.80;;
71655;SDS011;59497;48.798;8.816;2022-09-13T19:53:29;2.23;;;1.73;;
71655;SDS011;59497;48.798;8.816;2022-09-13T19:55:54;6.10;;;2.00;;
71655;SDS011;59497;48.798;8.816;2022-09-13T19:58:20;5.80;;;2.03;;
71655;SDS011;59497;48.798;8.816;2022-09-13T20:00:45;4.17;;;2.30;;
71655;SDS011;59497;48.798;8.816;2022-09-13T20:03:10;1.53;;;1.37;;
71655;SDS011;59497;48.798;8.816;2022-09-13T20:05:35;2.27;;;1.80;;
71655;SDS011;59497;48.798;8.816;2022-09-13T20:08:03;2.80;;;1.92;;
71655;SDS011;59497;48.798;8.816;2022-09-13T20:10:28;2.37;;;1.83;;
71655;SDS011;59497;48.798;8.816;2022-09-13T20:12:55;2.33;;;1.42;;
71655;SDS011;59497;48.798;8.816;2022-09-13T20:15:22;3.33;;;1.60;;
71655;SDS011;59497;48.798;8.816;2022-09-13T20:17:47;3.07;;;2.07;;
71655;SDS011;59497;48.798;8.816;2022-09-13T20:20:12;3.30;;;1.70;;
71655;SDS011;59497;48.798;8.816;2022-09-13T20:22:38;2.80;;;2.00;;
71655;SDS011;59497;48.798;8.816;2022-09-13T20:25:03;4.53;;;1.60;;
71655;SDS011;59497;48.798;8.816;2022-09-13T20:27:29;3.83;;;1.77;;
71655;SDS011;59497;48.798;8.816;2022-09-13T20:29:56;4.35;;;1.70;;
71655;SDS011;59497;48.798;8.816;2022-09-13T20:32:22;3.58;;;2.17;;
71655;SDS011;59497;48.798;8.816;2022-09-13T20:34:48;3.90;;;2.07;;
71655;SDS011;59497;48.798;8.816;2022-09-13T20:37:14;3.43;;;2.10;;
71655;SDS011;59497;48.798;8.816;2022-09-13T20:39:39;3.40;;;2.27;;
71655;SDS011;59497;48.798;8.816;2022-09-13T20:42:04;3.53;;;1.80;;
71655;SDS011;59497;48.798;8.816;2022-09-13T20:44:29;4.63;;;1.77;;
71655;SDS011;59497;48.798;8.816;2022-09-13T20:46:54;5.25;;;3.25;;
71655;SDS011;59497;48.798;8.816;2022-09-13T20:49:19;3.93;;;3.00;;
71655;SDS011;59497;48.798;8.816;2022-09-13T20:51:45;6.43;;;2.30;;
71655;SDS011;59497;48.798;8.816;2022-09-13T20:54:11;2.72;;;1.80;;
71655;SDS011;59497;48.798;8.816;2022-09-13T20:56:37;3.43;;;2.20;;
71655;SDS011;59497;48.798;8.816;2022-09-13T20:59:02;2.63;;;1.40;;
71655;SDS011;59497;48.798;8.816;2022-09-13T21:01:28;7.15;;;2.45;;
71655;SDS011;59497;48.798;8.816;2022-09-13T21:03:54;1.93;;;1.67;;
71655;SDS011;59497;48.798;8.816;2022-09-13T21:06:20;3.50;;;2.13;;
71655;SDS011;59497;48.798;8.816;2022-09-13T21:08:46;2.67;;;1.60;;
71655;SDS011;59497;48.798;8.816;2022-09-13T21:13:40;3.42;;;1.95;;
71655;SDS011;59497;48.798;8.816;2022-09-13T21:16:07;3.07;;;1.90;;
71655;SDS011;59497;48.798;8.816;2022-09-13T21:18:32;3.88;;;1.98;;
71655;SDS011;59497;48.798;8.816;2022-09-13T21:20:58;3.00;;;1.93;;
71655;SDS011;59497;48.798;8.816;2022-09-13T21:23:24;3.58;;;2.08;;
71655;SDS011;59497;48.798;8.816;2022-09-13T21:25:49;3.63;;;2.10;;
71655;SDS011;59497;48.798;8.816;2022-09-13T21:28:15;3.47;;;2.03;;
71655;SDS011;59497;48.798;8.816;2022-09-13T21:30:40;2.70;;;1.60;;
71655;SDS011;59497;48.798;8.816;2022-09-13T21:33:06;3.50;;;1.80;;
71655;SDS011;59497;48.798;8.816;2022-09-13T21:35:35;3.03;;;1.33;;
71655;SDS011;59497;48.798;8.816;2022-09-13T21:38:00;4.57;;;1.88;;
71655;SDS011;59497;48.798;8.816;2022-09-13T21:40:26;2.37;;;1.73;;
71655;SDS011;59497;48.798;8.816;2022-09-13T21:42:51;2.08;;;1.55;;
71655;SDS011;59497;48.798;8.816;2022-09-13T21:45:16;4.60;;;1.77;;
71655;SDS011;59497;48.798;8.816;2022-09-13T21:47:41;3.67;;;2.10;;
71655;SDS011;59497;48.798;8.816;2022-09-13T21:50:06;2.22;;;1.70;;
71655;SDS011;59497;48.798;8.816;2022-09-13T21:52:32;2.73;;;1.87;;
71655;SDS011;59497;48.798;8.816;2022-09-13T21:54:57;3.25;;;2.05;;
71655;SDS011;59497;48.798;8.816;2022-09-13T21:57:22;2.75;;;2.00;;